Buoy 52912

sailwx.info

Track history (hours):
 
Tides and Currents Weather Stations Pressure Air Temp Water Temp Dewpoint Dewpoint Depression Visibility Wind Speed Wind Dir Waves Ship Positions

Drifting buoy 52912

Last reported at 2015-Mar-03 07:00 UTC. Time now 2015-Mar-03 08:59 UTC.
Position N 12°56' E 143°57'.

Water temperature 27.5 ° C

Date/timePositionNaut miles runAvg speedWind from/ knotsBaromVisibWave heightAir tempDewpointWater temp
2015-Mar-03 07:00N 12°56' E 143°57'1 1.1 27.5
2015-Mar-03 06:00N 12°56' E 143°58'0 0.0 27.5
2015-Mar-03 05:00N 12°56' E 143°58'1 0.5 27.6
2015-Mar-03 03:00N 12°56' E 143°59'1 0.3 27.5
2015-Mar-03 00:00N 12°55' E 143°58'1 0.1 27.3
2015-Mar-02 20:00N 12°55' E 143°59'1 0.5 27.3
2015-Mar-02 19:00N 12°55' E 143°59'1 0.4 27.3
2015-Mar-02 16:00N 12°54' E 144°00'0 0.1 27.3
2015-Mar-02 12:00N 12°54' E 144°00'1 0.3 27.3
2015-Mar-02 10:00N 12°54' E 144°01'1 1.2 27.4
2015-Mar-02 09:00N 12°53' E 143°60'1 0.8 27.4
2015-Mar-02 08:00N 12°53' E 144°00'1 0.6 27.4
2015-Mar-02 07:00N 12°52' E 144°00'1 0.7 27.4
2015-Mar-02 05:00N 12°51' E 144°01'0 0.0 27.5
2015-Mar-02 03:00N 12°51' E 144°01'0 0.2 27.4
2015-Mar-02 00:00N 12°51' E 144°02'2 0.6 27.3
2015-Mar-01 21:00N 12°51' E 143°60'0 0.0 27.3
2015-Mar-01 20:00N 12°51' E 143°60'0 0.1 27.3
2015-Mar-01 18:00N 12°51' E 144°00'2 0.2 27.3
2015-Mar-01 08:00N 12°51' E 144°03'1 0.3 27.4
2015-Mar-01 06:00N 12°51' E 144°02'3 1.5 27.4
2015-Mar-01 04:00N 12°51' E 144°05'0 0.0 27.4
2015-Mar-01 03:00N 12°51' E 144°05'0 0.0 27.4
2015-Feb-28 23:00N 12°51' E 144°05'1 0.3 27.3
2015-Feb-28 21:00N 12°51' E 144°05'1 0.7 27.3
2015-Feb-28 20:00N 12°51' E 144°05'1 0.7 27.3
2015-Feb-28 19:00N 12°52' E 144°06'0 0.0 27.3
2015-Feb-28 18:00N 12°52' E 144°06'1 0.6 27.3
2015-Feb-28 17:00N 12°52' E 144°07'2 0.2 27.3
2015-Feb-28 07:00N 12°53' E 144°08'0 0.0 27.5
2015-Feb-28 06:00N 12°53' E 144°08'1 0.9 27.5
2015-Feb-28 05:00N 12°52' E 144°08'3 0.5 27.5
2015-Feb-27 23:00N 12°52' E 144°11'1 0.2 27.3
2015-Feb-27 20:00N 12°53' E 144°11'0 0.2 27.3
2015-Feb-27 18:00N 12°53' E 144°12'1 0.5 27.3
2015-Feb-27 15:00N 12°53' E 144°13'2 1.9 27.3
2015-Feb-27 14:00N 12°53' E 144°15'0 0.0 27.3
2015-Feb-27 12:00N 12°53' E 144°15'2 0.5 27.3
2015-Feb-27 08:00N 12°55' E 144°16'2 0.6 27.3
2015-Feb-27 05:00N 12°54' E 144°18'0 0.1 27.4
2015-Feb-27 04:00N 12°54' E 144°18'0 0.0 27.4
2015-Feb-27 03:00N 12°54' E 144°18'6 0.5 27.3
2015-Feb-26 15:00N 12°54' E 144°24'1 0.4 27.3
2015-Feb-26 12:00N 12°54' E 144°25'2 1.7 27.3
2015-Feb-26 11:00N 12°56' E 144°27'1 0.7 27.3
2015-Feb-26 09:00N 12°55' E 144°28'0 0.1 27.3
2015-Feb-26 07:00N 12°55' E 144°28'0 0.4 27.4
2015-Feb-26 06:00N 12°55' E 144°29'1 0.9 27.4
2015-Feb-26 05:00N 12°55' E 144°30'0 0.0 27.4
2015-Feb-26 04:00N 12°55' E 144°30'2 1.6 27.4
2015-Feb-26 03:00N 12°55' E 144°31'0 0.0 27.4
2015-Feb-26 02:00N 12°55' E 144°31'0 0.0 27.3
2015-Feb-26 01:00N 12°55' E 144°31'1 0.5 27.3
2015-Feb-25 23:00N 12°56' E 144°31'0 0.0 27.3
2015-Feb-25 22:00N 12°56' E 144°31'1 1.4 27.3
2015-Feb-25 21:00N 12°57' E 144°33'0 0.0 27.3
2015-Feb-25 20:00N 12°57' E 144°33'0 0.1 27.3
2015-Feb-25 19:00N 12°57' E 144°33'1 1.1 27.3
2015-Feb-25 18:00N 12°57' E 144°34'0 0.0 27.3
2015-Feb-25 17:00N 12°57' E 144°34'1 0.7 27.3
2015-Feb-25 15:00N 12°58' E 144°34'0 0.0 27.3
2015-Feb-25 12:00N 12°58' E 144°34'1 1.3 27.3
2015-Feb-25 11:00N 12°60' E 144°34'2 0.7 27.3
2015-Feb-25 08:00N 12°59' E 144°37'1 0.7 27.4
2015-Feb-25 06:00N 12°59' E 144°38'1 0.5 27.4
2015-Feb-25 03:00N 13°00' E 144°39'0 0.0 27.4
2015-Feb-25 02:00N 13°00' E 144°39'1 0.6 27.4
2015-Feb-25 00:00N 13°01' E 144°40'4 3.8 27.3
2015-Feb-24 23:00N 13°03' E 144°43'0 0.0 27.3
2015-Feb-24 21:00N 13°03' E 144°43'1 0.3 27.3
2015-Feb-24 19:00N 13°04' E 144°43'2 1.7 27.3
2015-Feb-24 18:00N 13°04' E 144°45'1 0.6 27.3
2015-Feb-24 17:00N 13°05' E 144°45'0 0.0 27.3
2015-Feb-24 16:00N 13°05' E 144°45'3 2.8 27.3
2015-Feb-24 15:00N 13°07' E 144°47'1 0.1 27.3
2015-Feb-24 11:00N 13°07' E 144°47'3 1.0 27.3
2015-Feb-24 08:00N 13°09' E 144°50'0 0.0 27.3
2015-Feb-24 07:00N 13°09' E 144°50'0 0.3 27.3
2015-Feb-24 06:00N 13°09' E 144°50'1 0.3 27.4
2015-Feb-24 03:00N 13°09' E 144°51'3 1.6 27.4
2015-Feb-24 01:00N 13°09' E 144°54'0 0.0 27.3
2015-Feb-24 00:00N 13°09' E 144°54'2 1.7 27.3
2015-Feb-23 23:00N 13°10' E 144°55'1 0.2 27.3
2015-Feb-23 20:00N 13°11' E 144°55'1 1.2 27.3
2015-Feb-23 19:00N 13°12' E 144°55'0 0.0 27.3
2015-Feb-23 17:00N 13°12' E 144°55'1 0.9 27.3
2015-Feb-23 16:00N 13°12' E 144°56'0 0.0 27.3
2015-Feb-23 15:00N 13°12' E 144°56'2 0.6 27.3
2015-Feb-23 12:00N 13°13' E 144°58'1 0.3 27.3
2015-Feb-23 09:00N 13°14' E 144°58'1 0.4 27.3
2015-Feb-23 06:00N 13°14' E 144°59'0 0.0 27.4
2015-Feb-23 05:00N 13°14' E 144°59'0 0.2 27.4
2015-Feb-23 03:00N 13°15' E 144°59'1 0.7 27.4
2015-Feb-23 02:00N 13°15' E 144°60'0 0.1 27.4
2015-Feb-23 00:00N 13°15' E 144°60'1 0.8 27.4
2015-Feb-22 23:00N 13°15' E 145°00'0 0.0 27.3
2015-Feb-22 21:00N 13°15' E 145°00'1 1.0 27.3
2015-Feb-22 20:00N 13°16' E 145°01'0 0.2 27.3
2015-Feb-22 19:00N 13°16' E 145°01'1 0.2 27.3
2015-Feb-22 16:00N 13°16' E 145°02'0 0.0 27.4
2015-Feb-22 15:00N 13°16' E 145°02'3 0.9 27.3
2015-Feb-22 11:00N 13°18' E 145°05'2 0.6 27.4
2015-Feb-22 08:00N 13°19' E 145°06'2 0.8 27.4
2015-Feb-22 06:00N 13°20' E 145°07'1 1.3 27.4
2015-Feb-22 05:00N 13°21' E 145°09'0 0.0 27.4
2015-Feb-22 03:00N 13°21' E 145°09'2 0.6 27.4
2015-Feb-22 00:00N 13°21' E 145°10'3 3.3 27.4
2015-Feb-21 23:00N 13°22' E 145°14'1 0.2 27.4
2015-Feb-21 18:00N 13°21' E 145°15'0 0.0 27.4
2015-Feb-21 17:00N 13°21' E 145°15'7 1.1 27.4
2015-Feb-21 11:00N 13°20' E 145°22'0 0.0 27.4
2015-Feb-21 10:00N 13°20' E 145°22'1 0.5 27.5
2015-Feb-21 07:00N 13°20' E 145°23'   27.5
Track history (hours):
 
Tides and Currents Weather Stations Pressure Air Temp Water Temp Dewpoint Dewpoint Depression Visibility Wind Speed Wind Dir Waves Ship Positions

Drifting buoy 52912

Last reported at 2015-Mar-03 07:00 UTC. Time now 2015-Mar-03 08:59 UTC.
Position N 12°56' E 143°57'.

Water temperature 27.5 ° C

Date/timePositionNaut miles runAvg speedWind from/ knotsBaromVisibWave heightAir tempDewpointWater temp
2015-Mar-03 07:00N 12°56' E 143°57'1 1.1 27.5
2015-Mar-03 06:00N 12°56' E 143°58'0 0.0 27.5
2015-Mar-03 05:00N 12°56' E 143°58'1 0.5 27.6
2015-Mar-03 03:00N 12°56' E 143°59'1 0.3 27.5
2015-Mar-03 00:00N 12°55' E 143°58'1 0.1 27.3
2015-Mar-02 20:00N 12°55' E 143°59'1 0.5 27.3
2015-Mar-02 19:00N 12°55' E 143°59'1 0.4 27.3
2015-Mar-02 16:00N 12°54' E 144°00'0 0.1 27.3
2015-Mar-02 12:00N 12°54' E 144°00'1 0.3 27.3
2015-Mar-02 10:00N 12°54' E 144°01'1 1.2 27.4
2015-Mar-02 09:00N 12°53' E 143°60'1 0.8 27.4
2015-Mar-02 08:00N 12°53' E 144°00'1 0.6 27.4
2015-Mar-02 07:00N 12°52' E 144°00'1 0.7 27.4
2015-Mar-02 05:00N 12°51' E 144°01'0 0.0 27.5
2015-Mar-02 03:00N 12°51' E 144°01'0 0.2 27.4
2015-Mar-02 00:00N 12°51' E 144°02'2 0.6 27.3
2015-Mar-01 21:00N 12°51' E 143°60'0 0.0 27.3
2015-Mar-01 20:00N 12°51' E 143°60'0 0.1 27.3
2015-Mar-01 18:00N 12°51' E 144°00'2 0.2 27.3
2015-Mar-01 08:00N 12°51' E 144°03'1 0.3 27.4
2015-Mar-01 06:00N 12°51' E 144°02'3 1.5 27.4
2015-Mar-01 04:00N 12°51' E 144°05'0 0.0 27.4
2015-Mar-01 03:00N 12°51' E 144°05'0 0.0 27.4
2015-Feb-28 23:00N 12°51' E 144°05'1 0.3 27.3
2015-Feb-28 21:00N 12°51' E 144°05'1 0.7 27.3
2015-Feb-28 20:00N 12°51' E 144°05'1 0.7 27.3
2015-Feb-28 19:00N 12°52' E 144°06'0 0.0 27.3
2015-Feb-28 18:00N 12°52' E 144°06'1 0.6 27.3
2015-Feb-28 17:00N 12°52' E 144°07'2 0.2 27.3
2015-Feb-28 07:00N 12°53' E 144°08'0 0.0 27.5
2015-Feb-28 06:00N 12°53' E 144°08'1 0.9 27.5
2015-Feb-28 05:00N 12°52' E 144°08'3 0.5 27.5
2015-Feb-27 23:00N 12°52' E 144°11'1 0.2 27.3
2015-Feb-27 20:00N 12°53' E 144°11'0 0.2 27.3
2015-Feb-27 18:00N 12°53' E 144°12'1 0.5 27.3
2015-Feb-27 15:00N 12°53' E 144°13'2 1.9 27.3
2015-Feb-27 14:00N 12°53' E 144°15'0 0.0 27.3
2015-Feb-27 12:00N 12°53' E 144°15'2 0.5 27.3
2015-Feb-27 08:00N 12°55' E 144°16'2 0.6 27.3
2015-Feb-27 05:00N 12°54' E 144°18'0 0.1 27.4
2015-Feb-27 04:00N 12°54' E 144°18'0 0.0 27.4
2015-Feb-27 03:00N 12°54' E 144°18'6 0.5 27.3
2015-Feb-26 15:00N 12°54' E 144°24'1 0.4 27.3
2015-Feb-26 12:00N 12°54' E 144°25'2 1.7 27.3
2015-Feb-26 11:00N 12°56' E 144°27'1 0.7 27.3
2015-Feb-26 09:00N 12°55' E 144°28'0 0.1 27.3
2015-Feb-26 07:00N 12°55' E 144°28'0 0.4 27.4
2015-Feb-26 06:00N 12°55' E 144°29'1 0.9 27.4
2015-Feb-26 05:00N 12°55' E 144°30'0 0.0 27.4
2015-Feb-26 04:00N 12°55' E 144°30'2 1.6 27.4
2015-Feb-26 03:00N 12°55' E 144°31'0 0.0 27.4
2015-Feb-26 02:00N 12°55' E 144°31'0 0.0 27.3
2015-Feb-26 01:00N 12°55' E 144°31'1 0.5 27.3
2015-Feb-25 23:00N 12°56' E 144°31'0 0.0 27.3
2015-Feb-25 22:00N 12°56' E 144°31'1 1.4 27.3
2015-Feb-25 21:00N 12°57' E 144°33'0 0.0 27.3
2015-Feb-25 20:00N 12°57' E 144°33'0 0.1 27.3
2015-Feb-25 19:00N 12°57' E 144°33'1 1.1 27.3
2015-Feb-25 18:00N 12°57' E 144°34'0 0.0 27.3
2015-Feb-25 17:00N 12°57' E 144°34'1 0.7 27.3
2015-Feb-25 15:00N 12°58' E 144°34'0 0.0 27.3
2015-Feb-25 12:00N 12°58' E 144°34'1 1.3 27.3
2015-Feb-25 11:00N 12°60' E 144°34'2 0.7 27.3
2015-Feb-25 08:00N 12°59' E 144°37'1 0.7 27.4
2015-Feb-25 06:00N 12°59' E 144°38'1 0.5 27.4
2015-Feb-25 03:00N 13°00' E 144°39'0 0.0 27.4
2015-Feb-25 02:00N 13°00' E 144°39'1 0.6 27.4
2015-Feb-25 00:00N 13°01' E 144°40'4 3.8 27.3
2015-Feb-24 23:00N 13°03' E 144°43'0 0.0 27.3
2015-Feb-24 21:00N 13°03' E 144°43'1 0.3 27.3
2015-Feb-24 19:00N 13°04' E 144°43'2 1.7 27.3
2015-Feb-24 18:00N 13°04' E 144°45'1 0.6 27.3
2015-Feb-24 17:00N 13°05' E 144°45'0 0.0 27.3
2015-Feb-24 16:00N 13°05' E 144°45'3 2.8 27.3
2015-Feb-24 15:00N 13°07' E 144°47'1 0.1 27.3
2015-Feb-24 11:00N 13°07' E 144°47'3 1.0 27.3
2015-Feb-24 08:00N 13°09' E 144°50'0 0.0 27.3
2015-Feb-24 07:00N 13°09' E 144°50'0 0.3 27.3
2015-Feb-24 06:00N 13°09' E 144°50'1 0.3 27.4
2015-Feb-24 03:00N 13°09' E 144°51'3 1.6 27.4
2015-Feb-24 01:00N 13°09' E 144°54'0 0.0 27.3
2015-Feb-24 00:00N 13°09' E 144°54'2 1.7 27.3
2015-Feb-23 23:00N 13°10' E 144°55'1 0.2 27.3
2015-Feb-23 20:00N 13°11' E 144°55'1 1.2 27.3
2015-Feb-23 19:00N 13°12' E 144°55'0 0.0 27.3
2015-Feb-23 17:00N 13°12' E 144°55'1 0.9 27.3
2015-Feb-23 16:00N 13°12' E 144°56'0 0.0 27.3
2015-Feb-23 15:00N 13°12' E 144°56'2 0.6 27.3
2015-Feb-23 12:00N 13°13' E 144°58'1 0.3 27.3
2015-Feb-23 09:00N 13°14' E 144°58'1 0.4 27.3
2015-Feb-23 06:00N 13°14' E 144°59'0 0.0 27.4
2015-Feb-23 05:00N 13°14' E 144°59'0 0.2 27.4
2015-Feb-23 03:00N 13°15' E 144°59'1 0.7 27.4
2015-Feb-23 02:00N 13°15' E 144°60'0 0.1 27.4
2015-Feb-23 00:00N 13°15' E 144°60'1 0.8 27.4
2015-Feb-22 23:00N 13°15' E 145°00'0 0.0 27.3
2015-Feb-22 21:00N 13°15' E 145°00'1 1.0 27.3
2015-Feb-22 20:00N 13°16' E 145°01'0 0.2 27.3
2015-Feb-22 19:00N 13°16' E 145°01'1 0.2 27.3
2015-Feb-22 16:00N 13°16' E 145°02'0 0.0 27.4
2015-Feb-22 15:00N 13°16' E 145°02'3 0.9 27.3
2015-Feb-22 11:00N 13°18' E 145°05'2 0.6 27.4
2015-Feb-22 08:00N 13°19' E 145°06'2 0.8 27.4
2015-Feb-22 06:00N 13°20' E 145°07'1 1.3 27.4
2015-Feb-22 05:00N 13°21' E 145°09'0 0.0 27.4
2015-Feb-22 03:00N 13°21' E 145°09'2 0.6 27.4
2015-Feb-22 00:00N 13°21' E 145°10'3 3.3 27.4
2015-Feb-21 23:00N 13°22' E 145°14'1 0.2 27.4
2015-Feb-21 18:00N 13°21' E 145°15'0 0.0 27.4
2015-Feb-21 17:00N 13°21' E 145°15'7 1.1 27.4
2015-Feb-21 11:00N 13°20' E 145°22'0 0.0 27.4
2015-Feb-21 10:00N 13°20' E 145°22'1 0.5 27.5
2015-Feb-21 07:00N 13°20' E 145°23'   27.5

Dump ship's entire track history